sensor_id;sensor_type;location;lat;lon;timestamp;P1;durP1;ratioP1;P2;durP2;ratioP2
52041;SDS011;38052;45.944;13.624;2023-02-15T00:00:37;15.98;;;10.07;;
52041;SDS011;38052;45.944;13.624;2023-02-15T00:03:03;15.52;;;10.38;;
52041;SDS011;38052;45.944;13.624;2023-02-15T00:05:30;16.23;;;10.60;;
52041;SDS011;38052;45.944;13.624;2023-02-15T00:07:56;19.35;;;10.70;;
52041;SDS011;38052;45.944;13.624;2023-02-15T00:10:22;14.55;;;10.25;;
52041;SDS011;38052;45.944;13.624;2023-02-15T00:12:49;13.52;;;9.77;;
52041;SDS011;38052;45.944;13.624;2023-02-15T00:15:16;12.98;;;7.32;;
52041;SDS011;38052;45.944;13.624;2023-02-15T00:17:43;12.18;;;7.78;;
52041;SDS011;38052;45.944;13.624;2023-02-15T00:20:09;10.73;;;6.88;;
52041;SDS011;38052;45.944;13.624;2023-02-15T00:22:36;12.57;;;7.50;;
52041;SDS011;38052;45.944;13.624;2023-02-15T00:25:02;15.60;;;8.32;;
52041;SDS011;38052;45.944;13.624;2023-02-15T00:27:28;12.38;;;7.93;;
52041;SDS011;38052;45.944;13.624;2023-02-15T00:29:55;12.30;;;7.63;;
52041;SDS011;38052;45.944;13.624;2023-02-15T00:32:21;13.18;;;7.85;;
52041;SDS011;38052;45.944;13.624;2023-02-15T00:34:48;13.95;;;9.50;;
52041;SDS011;38052;45.944;13.624;2023-02-15T00:37:14;12.98;;;8.60;;
52041;SDS011;38052;45.944;13.624;2023-02-15T00:39:41;15.43;;;8.98;;
52041;SDS011;38052;45.944;13.624;2023-02-15T00:42:07;14.32;;;7.93;;
52041;SDS011;38052;45.944;13.624;2023-02-15T00:44:33;13.20;;;8.27;;
52041;SDS011;38052;45.944;13.624;2023-02-15T00:47:00;13.80;;;8.13;;
52041;SDS011;38052;45.944;13.624;2023-02-15T00:49:26;18.15;;;9.05;;
52041;SDS011;38052;45.944;13.624;2023-02-15T00:51:53;13.77;;;8.82;;
52041;SDS011;38052;45.944;13.624;2023-02-15T00:54:20;15.32;;;8.38;;
52041;SDS011;38052;45.944;13.624;2023-02-15T00:56:46;12.80;;;8.00;;
52041;SDS011;38052;45.944;13.624;2023-02-15T00:59:13;12.38;;;7.93;;
52041;SDS011;38052;45.944;13.624;2023-02-15T01:01:39;14.45;;;7.97;;
52041;SDS011;38052;45.944;13.624;2023-02-15T01:04:05;13.43;;;9.25;;
52041;SDS011;38052;45.944;13.624;2023-02-15T01:06:33;14.27;;;7.80;;
52041;SDS011;38052;45.944;13.624;2023-02-15T01:08:59;13.15;;;7.82;;
52041;SDS011;38052;45.944;13.624;2023-02-15T01:11:25;11.45;;;7.53;;
52041;SDS011;38052;45.944;13.624;2023-02-15T01:13:52;13.50;;;8.13;;
52041;SDS011;38052;45.944;13.624;2023-02-15T01:16:19;13.25;;;8.88;;
52041;SDS011;38052;45.944;13.624;2023-02-15T01:18:45;12.15;;;7.45;;
52041;SDS011;38052;45.944;13.624;2023-02-15T01:21:12;12.23;;;7.72;;
52041;SDS011;38052;45.944;13.624;2023-02-15T01:23:39;13.95;;;7.30;;
52041;SDS011;38052;45.944;13.624;2023-02-15T01:26:05;12.20;;;6.95;;
52041;SDS011;38052;45.944;13.624;2023-02-15T01:28:32;13.50;;;7.97;;
52041;SDS011;38052;45.944;13.624;2023-02-15T01:30:58;16.83;;;7.75;;
52041;SDS011;38052;45.944;13.624;2023-02-15T01:33:25;13.63;;;7.82;;
52041;SDS011;38052;45.944;13.624;2023-02-15T01:35:58;17.25;;;7.50;;
52041;SDS011;38052;45.944;13.624;2023-02-15T01:38:24;12.30;;;8.23;;
52041;SDS011;38052;45.944;13.624;2023-02-15T01:40:51;12.38;;;7.78;;
52041;SDS011;38052;45.944;13.624;2023-02-15T01:43:18;12.90;;;8.18;;
52041;SDS011;38052;45.944;13.624;2023-02-15T01:45:45;12.98;;;8.07;;
52041;SDS011;38052;45.944;13.624;2023-02-15T01:50:43;12.45;;;8.38;;
52041;SDS011;38052;45.944;13.624;2023-02-15T01:56:25;10.27;;;7.95;;
52041;SDS011;38052;45.944;13.624;2023-02-15T01:58:44;11.00;;;7.22;;
52041;SDS011;38052;45.944;13.624;2023-02-15T02:01:11;11.70;;;7.65;;
52041;SDS011;38052;45.944;13.624;2023-02-15T02:03:43;11.65;;;7.15;;
52041;SDS011;38052;45.944;13.624;2023-02-15T02:06:13;11.13;;;6.95;;
52041;SDS011;38052;45.944;13.624;2023-02-15T02:08:39;9.90;;;6.75;;
52041;SDS011;38052;45.944;13.624;2023-02-15T02:11:12;12.52;;;7.53;;
52041;SDS011;38052;45.944;13.624;2023-02-15T02:13:40;15.25;;;8.30;;
52041;SDS011;38052;45.944;13.624;2023-02-15T02:16:18;13.82;;;7.85;;
52041;SDS011;38052;45.944;13.624;2023-02-15T02:34:19;12.05;;;8.95;;
52041;SDS011;38052;45.944;13.624;2023-02-15T02:39:30;13.02;;;8.25;;
52041;SDS011;38052;45.944;13.624;2023-02-15T02:47:05;10.40;;;7.15;;
52041;SDS011;38052;45.944;13.624;2023-02-15T02:49:35;11.38;;;7.15;;
52041;SDS011;38052;45.944;13.624;2023-02-15T02:52:03;13.95;;;7.53;;
52041;SDS011;38052;45.944;13.624;2023-02-15T02:54:30;10.27;;;7.80;;
52041;SDS011;38052;45.944;13.624;2023-02-15T02:56:59;10.90;;;7.88;;
52041;SDS011;38052;45.944;13.624;2023-02-15T02:59:32;12.60;;;7.30;;
52041;SDS011;38052;45.944;13.624;2023-02-15T03:02:02;11.77;;;6.35;;
52041;SDS011;38052;45.944;13.624;2023-02-15T03:04:35;13.13;;;7.63;;
52041;SDS011;38052;45.944;13.624;2023-02-15T03:07:07;11.02;;;7.30;;
52041;SDS011;38052;45.944;13.624;2023-02-15T03:09:36;13.57;;;7.43;;
52041;SDS011;38052;45.944;13.624;2023-02-15T03:12:07;10.80;;;6.75;;
52041;SDS011;38052;45.944;13.624;2023-02-15T03:14:34;10.13;;;6.07;;
52041;SDS011;38052;45.944;13.624;2023-02-15T03:17:01;14.93;;;7.53;;
52041;SDS011;38052;45.944;13.624;2023-02-15T03:19:29;13.93;;;6.32;;
52041;SDS011;38052;45.944;13.624;2023-02-15T03:22:03;11.70;;;6.25;;
52041;SDS011;38052;45.944;13.624;2023-02-15T03:27:04;11.55;;;7.90;;
52041;SDS011;38052;45.944;13.624;2023-02-15T03:29:32;12.55;;;7.35;;
52041;SDS011;38052;45.944;13.624;2023-02-15T03:31:59;10.68;;;7.03;;
52041;SDS011;38052;45.944;13.624;2023-02-15T03:34:26;10.65;;;7.32;;
52041;SDS011;38052;45.944;13.624;2023-02-15T03:42:08;9.73;;;7.57;;
52041;SDS011;38052;45.944;13.624;2023-02-15T03:44:38;12.65;;;6.70;;
52041;SDS011;38052;45.944;13.624;2023-02-15T03:47:15;12.25;;;7.47;;
52041;SDS011;38052;45.944;13.624;2023-02-15T03:49:42;10.88;;;7.50;;
52041;SDS011;38052;45.944;13.624;2023-02-15T03:52:10;10.85;;;7.05;;
52041;SDS011;38052;45.944;13.624;2023-02-15T03:54:38;12.00;;;6.53;;
52041;SDS011;38052;45.944;13.624;2023-02-15T03:57:26;10.07;;;6.60;;
52041;SDS011;38052;45.944;13.624;2023-02-15T04:05:25;9.90;;;6.95;;
52041;SDS011;38052;45.944;13.624;2023-02-15T04:07:51;10.80;;;6.75;;
52041;SDS011;38052;45.944;13.624;2023-02-15T04:10:18;10.60;;;7.28;;
52041;SDS011;38052;45.944;13.624;2023-02-15T04:13:02;9.63;;;6.82;;
52041;SDS011;38052;45.944;13.624;2023-02-15T04:15:29;10.57;;;6.78;;
52041;SDS011;38052;45.944;13.624;2023-02-15T04:18:14;15.20;;;7.25;;
52041;SDS011;38052;45.944;13.624;2023-02-15T04:20:43;14.15;;;7.35;;
52041;SDS011;38052;45.944;13.624;2023-02-15T04:23:27;14.45;;;7.07;;
52041;SDS011;38052;45.944;13.624;2023-02-15T04:26:12;10.15;;;6.28;;
52041;SDS011;38052;45.944;13.624;2023-02-15T04:28:40;9.55;;;6.35;;
52041;SDS011;38052;45.944;13.624;2023-02-15T04:31:06;11.80;;;6.57;;
52041;SDS011;38052;45.944;13.624;2023-02-15T04:33:33;11.02;;;7.45;;
52041;SDS011;38052;45.944;13.624;2023-02-15T04:36:00;7.65;;;6.43;;
52041;SDS011;38052;45.944;13.624;2023-02-15T04:38:27;10.65;;;6.90;;
52041;SDS011;38052;45.944;13.624;2023-02-15T04:40:53;12.65;;;6.78;;
52041;SDS011;38052;45.944;13.624;2023-02-15T04:43:20;12.65;;;7.65;;
52041;SDS011;38052;45.944;13.624;2023-02-15T04:45:48;11.52;;;7.45;;
52041;SDS011;38052;45.944;13.624;2023-02-15T04:48:15;11.57;;;7.90;;
52041;SDS011;38052;45.944;13.624;2023-02-15T04:50:41;10.27;;;6.72;;
52041;SDS011;38052;45.944;13.624;2023-02-15T04:53:08;12.32;;;7.45;;
52041;SDS011;38052;45.944;13.624;2023-02-15T04:55:34;20.02;;;8.38;;
52041;SDS011;38052;45.944;13.624;2023-02-15T04:58:01;14.18;;;8.18;;
52041;SDS011;38052;45.944;13.624;2023-02-15T05:00:27;13.05;;;7.35;;
52041;SDS011;38052;45.944;13.624;2023-02-15T05:02:54;12.02;;;8.32;;
52041;SDS011;38052;45.944;13.624;2023-02-15T05:05:20;12.50;;;7.90;;
52041;SDS011;38052;45.944;13.624;2023-02-15T05:07:47;12.57;;;8.50;;
52041;SDS011;38052;45.944;13.624;2023-02-15T05:10:14;14.75;;;8.07;;
52041;SDS011;38052;45.944;13.624;2023-02-15T05:12:40;12.98;;;8.35;;
52041;SDS011;38052;45.944;13.624;2023-02-15T05:15:07;9.90;;;6.75;;
52041;SDS011;38052;45.944;13.624;2023-02-15T05:17:33;9.85;;;6.22;;
52041;SDS011;38052;45.944;13.624;2023-02-15T05:20:00;13.40;;;8.25;;
52041;SDS011;38052;45.944;13.624;2023-02-15T05:22:27;10.65;;;8.00;;
52041;SDS011;38052;45.944;13.624;2023-02-15T05:24:53;16.30;;;8.38;;
52041;SDS011;38052;45.944;13.624;2023-02-15T05:27:38;10.52;;;7.30;;
52041;SDS011;38052;45.944;13.624;2023-02-15T05:30:22;12.95;;;7.70;;
52041;SDS011;38052;45.944;13.624;2023-02-15T05:32:49;11.02;;;7.25;;
52041;SDS011;38052;45.944;13.624;2023-02-15T05:35:15;13.15;;;8.60;;
52041;SDS011;38052;45.944;13.624;2023-02-15T05:37:42;13.55;;;8.13;;
52041;SDS011;38052;45.944;13.624;2023-02-15T05:40:08;12.73;;;8.93;;
52041;SDS011;38052;45.944;13.624;2023-02-15T05:42:35;15.80;;;9.30;;
52041;SDS011;38052;45.944;13.624;2023-02-15T05:45:01;20.08;;;8.15;;
52041;SDS011;38052;45.944;13.624;2023-02-15T05:47:28;13.95;;;8.35;;
52041;SDS011;38052;45.944;13.624;2023-02-15T05:49:55;10.95;;;7.65;;
52041;SDS011;38052;45.944;13.624;2023-02-15T05:52:22;10.05;;;6.88;;
52041;SDS011;38052;45.944;13.624;2023-02-15T05:54:48;12.63;;;7.70;;
52041;SDS011;38052;45.944;13.624;2023-02-15T05:57:14;14.77;;;9.10;;
52041;SDS011;38052;45.944;13.624;2023-02-15T05:59:41;11.48;;;7.55;;
52041;SDS011;38052;45.944;13.624;2023-02-15T06:02:07;10.90;;;7.50;;
52041;SDS011;38052;45.944;13.624;2023-02-15T06:04:33;11.73;;;8.20;;
52041;SDS011;38052;45.944;13.624;2023-02-15T06:07:00;11.27;;;8.38;;
52041;SDS011;38052;45.944;13.624;2023-02-15T06:09:27;13.05;;;8.93;;
52041;SDS011;38052;45.944;13.624;2023-02-15T06:11:53;14.60;;;9.38;;
52041;SDS011;38052;45.944;13.624;2023-02-15T06:14:19;13.45;;;8.23;;
52041;SDS011;38052;45.944;13.624;2023-02-15T06:16:46;15.38;;;10.10;;
52041;SDS011;38052;45.944;13.624;2023-02-15T06:19:13;15.18;;;9.50;;
52041;SDS011;38052;45.944;13.624;2023-02-15T06:21:40;15.27;;;9.05;;
52041;SDS011;38052;45.944;13.624;2023-02-15T06:24:08;13.93;;;8.43;;
52041;SDS011;38052;45.944;13.624;2023-02-15T06:26:34;13.52;;;9.35;;
52041;SDS011;38052;45.944;13.624;2023-02-15T06:29:01;11.15;;;8.23;;
52041;SDS011;38052;45.944;13.624;2023-02-15T06:31:27;17.67;;;9.65;;
52041;SDS011;38052;45.944;13.624;2023-02-15T06:33:54;13.48;;;9.57;;
52041;SDS011;38052;45.944;13.624;2023-02-15T06:36:28;13.80;;;9.63;;
52041;SDS011;38052;45.944;13.624;2023-02-15T06:38:55;14.02;;;8.98;;
52041;SDS011;38052;45.944;13.624;2023-02-15T06:41:21;13.23;;;8.65;;
52041;SDS011;38052;45.944;13.624;2023-02-15T06:43:48;13.55;;;8.75;;
52041;SDS011;38052;45.944;13.624;2023-02-15T06:46:14;13.43;;;8.35;;
52041;SDS011;38052;45.944;13.624;2023-02-15T06:48:41;13.23;;;8.32;;
52041;SDS011;38052;45.944;13.624;2023-02-15T06:51:07;12.63;;;8.60;;
52041;SDS011;38052;45.944;13.624;2023-02-15T06:53:34;14.20;;;9.18;;
52041;SDS011;38052;45.944;13.624;2023-02-15T06:56:05;14.98;;;9.23;;
52041;SDS011;38052;45.944;13.624;2023-02-15T06:58:49;13.90;;;8.05;;
52041;SDS011;38052;45.944;13.624;2023-02-15T07:01:17;15.07;;;8.88;;
52041;SDS011;38052;45.944;13.624;2023-02-15T07:03:43;15.68;;;9.98;;
52041;SDS011;38052;45.944;13.624;2023-02-15T07:06:10;13.73;;;9.38;;
52041;SDS011;38052;45.944;13.624;2023-02-15T07:08:37;17.90;;;9.35;;
52041;SDS011;38052;45.944;13.624;2023-02-15T07:11:04;17.27;;;9.60;;
52041;SDS011;38052;45.944;13.624;2023-02-15T07:13:49;14.10;;;9.55;;
52041;SDS011;38052;45.944;13.624;2023-02-15T07:16:15;16.83;;;10.15;;
52041;SDS011;38052;45.944;13.624;2023-02-15T07:18:42;16.70;;;9.75;;
52041;SDS011;38052;45.944;13.624;2023-02-15T07:21:08;16.35;;;9.60;;
52041;SDS011;38052;45.944;13.624;2023-02-15T07:23:35;14.80;;;9.77;;
52041;SDS011;38052;45.944;13.624;2023-02-15T07:26:02;15.88;;;10.10;;
52041;SDS011;38052;45.944;13.624;2023-02-15T07:28:28;15.18;;;9.00;;
52041;SDS011;38052;45.944;13.624;2023-02-15T07:30:54;15.63;;;9.20;;
52041;SDS011;38052;45.944;13.624;2023-02-15T07:33:21;13.18;;;8.95;;
52041;SDS011;38052;45.944;13.624;2023-02-15T07:35:55;17.75;;;9.75;;
52041;SDS011;38052;45.944;13.624;2023-02-15T07:38:25;14.70;;;8.82;;
52041;SDS011;38052;45.944;13.624;2023-02-15T07:40:57;12.88;;;8.30;;
52041;SDS011;38052;45.944;13.624;2023-02-15T07:43:24;17.13;;;8.30;;
52041;SDS011;38052;45.944;13.624;2023-02-15T07:45:50;14.68;;;9.98;;
52041;SDS011;38052;45.944;13.624;2023-02-15T07:48:16;15.68;;;9.27;;
52041;SDS011;38052;45.944;13.624;2023-02-15T07:50:42;14.48;;;8.93;;
52041;SDS011;38052;45.944;13.624;2023-02-15T07:53:09;21.83;;;9.35;;
52041;SDS011;38052;45.944;13.624;2023-02-15T07:55:35;14.25;;;7.88;;
52041;SDS011;38052;45.944;13.624;2023-02-15T07:58:01;17.02;;;7.93;;
52041;SDS011;38052;45.944;13.624;2023-02-15T08:00:27;12.98;;;8.60;;
52041;SDS011;38052;45.944;13.624;2023-02-15T08:02:55;17.10;;;9.27;;
52041;SDS011;38052;45.944;13.624;2023-02-15T08:05:40;15.52;;;9.63;;
52041;SDS011;38052;45.944;13.624;2023-02-15T08:08:07;17.17;;;9.48;;
52041;SDS011;38052;45.944;13.624;2023-02-15T08:10:35;15.52;;;8.30;;
52041;SDS011;38052;45.944;13.624;2023-02-15T08:13:19;21.75;;;9.05;;
52041;SDS011;38052;45.944;13.624;2023-02-15T08:15:52;11.70;;;9.18;;
52041;SDS011;38052;45.944;13.624;2023-02-15T08:18:18;15.20;;;8.63;;
52041;SDS011;38052;45.944;13.624;2023-02-15T08:20:50;16.05;;;10.00;;
52041;SDS011;38052;45.944;13.624;2023-02-15T08:23:17;15.25;;;8.85;;
52041;SDS011;38052;45.944;13.624;2023-02-15T08:25:43;13.07;;;8.93;;
52041;SDS011;38052;45.944;13.624;2023-02-15T08:28:09;15.32;;;10.38;;
52041;SDS011;38052;45.944;13.624;2023-02-15T08:30:36;17.25;;;9.32;;
52041;SDS011;38052;45.944;13.624;2023-02-15T08:33:03;14.15;;;10.23;;
52041;SDS011;38052;45.944;13.624;2023-02-15T08:35:30;15.27;;;9.90;;
52041;SDS011;38052;45.944;13.624;2023-02-15T08:37:56;14.75;;;8.68;;
52041;SDS011;38052;45.944;13.624;2023-02-15T08:40:23;12.73;;;8.73;;
52041;SDS011;38052;45.944;13.624;2023-02-15T08:42:50;19.08;;;9.45;;
52041;SDS011;38052;45.944;13.624;2023-02-15T08:45:17;14.05;;;8.68;;
52041;SDS011;38052;45.944;13.624;2023-02-15T08:47:43;16.58;;;8.02;;
52041;SDS011;38052;45.944;13.624;2023-02-15T08:50:10;13.13;;;8.75;;
52041;SDS011;38052;45.944;13.624;2023-02-15T08:52:36;14.05;;;8.68;;
52041;SDS011;38052;45.944;13.624;2023-02-15T08:55:03;18.27;;;9.30;;
52041;SDS011;38052;45.944;13.624;2023-02-15T08:57:30;17.55;;;8.95;;
52041;SDS011;38052;45.944;13.624;2023-02-15T08:59:57;17.67;;;8.73;;
52041;SDS011;38052;45.944;13.624;2023-02-15T09:02:24;11.85;;;8.05;;
52041;SDS011;38052;45.944;13.624;2023-02-15T09:04:50;11.95;;;7.97;;
52041;SDS011;38052;45.944;13.624;2023-02-15T09:07:17;11.57;;;8.48;;
52041;SDS011;38052;45.944;13.624;2023-02-15T09:09:44;9.65;;;7.20;;
52041;SDS011;38052;45.944;13.624;2023-02-15T09:12:11;9.65;;;7.05;;
52041;SDS011;38052;45.944;13.624;2023-02-15T09:14:38;12.15;;;7.82;;
52041;SDS011;38052;45.944;13.624;2023-02-15T09:17:04;11.15;;;7.22;;
52041;SDS011;38052;45.944;13.624;2023-02-15T09:19:31;13.23;;;7.50;;
52041;SDS011;38052;45.944;13.624;2023-02-15T09:21:57;12.30;;;8.25;;
52041;SDS011;38052;45.944;13.624;2023-02-15T09:24:24;12.88;;;7.43;;
52041;SDS011;38052;45.944;13.624;2023-02-15T09:26:50;11.60;;;7.47;;
52041;SDS011;38052;45.944;13.624;2023-02-15T09:29:17;10.10;;;6.80;;
52041;SDS011;38052;45.944;13.624;2023-02-15T09:31:45;12.60;;;6.70;;
52041;SDS011;38052;45.944;13.624;2023-02-15T09:34:12;13.75;;;7.45;;
52041;SDS011;38052;45.944;13.624;2023-02-15T09:36:39;10.82;;;7.30;;
52041;SDS011;38052;45.944;13.624;2023-02-15T09:41:38;10.93;;;7.40;;
52041;SDS011;38052;45.944;13.624;2023-02-15T09:49:33;10.30;;;6.30;;
52041;SDS011;38052;45.944;13.624;2023-02-15T09:52:16;14.52;;;6.63;;
52041;SDS011;38052;45.944;13.624;2023-02-15T09:54:55;12.35;;;7.13;;
52041;SDS011;38052;45.944;13.624;2023-02-15T09:58:07;12.02;;;6.75;;
52041;SDS011;38052;45.944;13.624;2023-02-15T10:05:13;14.70;;;7.90;;
52041;SDS011;38052;45.944;13.624;2023-02-15T10:07:57;11.20;;;7.35;;
52041;SDS011;38052;45.944;13.624;2023-02-15T10:13:05;8.88;;;7.18;;
52041;SDS011;38052;45.944;13.624;2023-02-15T10:26:04;12.88;;;7.13;;
52041;SDS011;38052;45.944;13.624;2023-02-15T10:38:32;13.05;;;7.47;;
52041;SDS011;38052;45.944;13.624;2023-02-15T10:43:40;14.48;;;6.50;;
52041;SDS011;38052;45.944;13.624;2023-02-15T10:48:51;12.57;;;7.00;;
52041;SDS011;38052;45.944;13.624;2023-02-15T11:05:08;9.10;;;5.72;;
52041;SDS011;38052;45.944;13.624;2023-02-15T11:09:51;8.82;;;5.75;;
52041;SDS011;38052;45.944;13.624;2023-02-15T11:12:21;9.43;;;4.73;;
52041;SDS011;38052;45.944;13.624;2023-02-15T11:14:54;10.02;;;5.25;;
52041;SDS011;38052;45.944;13.624;2023-02-15T11:17:33;10.45;;;5.90;;
52041;SDS011;38052;45.944;13.624;2023-02-15T11:22:56;7.20;;;4.97;;
52041;SDS011;38052;45.944;13.624;2023-02-15T11:25:25;8.70;;;5.10;;
52041;SDS011;38052;45.944;13.624;2023-02-15T11:27:52;8.82;;;5.35;;
52041;SDS011;38052;45.944;13.624;2023-02-15T11:30:20;11.75;;;5.15;;
52041;SDS011;38052;45.944;13.624;2023-02-15T11:32:49;13.00;;;6.18;;
52041;SDS011;38052;45.944;13.624;2023-02-15T11:35:20;10.52;;;6.25;;
52041;SDS011;38052;45.944;13.624;2023-02-15T11:40:22;8.68;;;5.35;;
52041;SDS011;38052;45.944;13.624;2023-02-15T11:42:49;11.10;;;6.20;;
52041;SDS011;38052;45.944;13.624;2023-02-15T11:47:44;11.00;;;5.95;;
52041;SDS011;38052;45.944;13.624;2023-02-15T11:50:14;7.50;;;5.82;;
52041;SDS011;38052;45.944;13.624;2023-02-15T11:52:41;10.50;;;5.50;;
52041;SDS011;38052;45.944;13.624;2023-02-15T11:55:16;9.35;;;6.07;;
52041;SDS011;38052;45.944;13.624;2023-02-15T11:57:44;8.25;;;5.88;;
52041;SDS011;38052;45.944;13.624;2023-02-15T12:00:19;8.15;;;5.60;;
52041;SDS011;38052;45.944;13.624;2023-02-15T12:02:50;9.07;;;5.43;;
52041;SDS011;38052;45.944;13.624;2023-02-15T12:05:18;8.40;;;5.05;;
52041;SDS011;38052;45.944;13.624;2023-02-15T12:07:48;5.68;;;4.18;;
52041;SDS011;38052;45.944;13.624;2023-02-15T12:10:20;6.35;;;4.88;;
52041;SDS011;38052;45.944;13.624;2023-02-15T12:12:48;20.17;;;5.47;;
52041;SDS011;38052;45.944;13.624;2023-02-15T12:15:33;6.65;;;4.25;;
52041;SDS011;38052;45.944;13.624;2023-02-15T12:18:00;6.03;;;4.20;;
52041;SDS011;38052;45.944;13.624;2023-02-15T12:20:33;6.80;;;4.18;;
52041;SDS011;38052;45.944;13.624;2023-02-15T12:23:01;6.93;;;4.15;;
52041;SDS011;38052;45.944;13.624;2023-02-15T12:28:00;8.48;;;4.05;;
52041;SDS011;38052;45.944;13.624;2023-02-15T12:30:29;5.72;;;3.72;;
52041;SDS011;38052;45.944;13.624;2023-02-15T12:32:57;8.75;;;5.80;;
52041;SDS011;38052;45.944;13.624;2023-02-15T12:35:29;5.88;;;4.65;;
52041;SDS011;38052;45.944;13.624;2023-02-15T12:40:28;8.15;;;3.55;;
52041;SDS011;38052;45.944;13.624;2023-02-15T12:42:55;6.22;;;3.28;;
52041;SDS011;38052;45.944;13.624;2023-02-15T12:45:24;6.57;;;3.20;;
52041;SDS011;38052;45.944;13.624;2023-02-15T12:50:35;4.22;;;3.22;;
52041;SDS011;38052;45.944;13.624;2023-02-15T12:53:06;4.65;;;3.08;;
52041;SDS011;38052;45.944;13.624;2023-02-15T13:04:01;3.75;;;3.30;;
52041;SDS011;38052;45.944;13.624;2023-02-15T13:06:26;4.75;;;2.63;;
52041;SDS011;38052;45.944;13.624;2023-02-15T13:08:58;8.43;;;3.60;;
52041;SDS011;38052;45.944;13.624;2023-02-15T13:11:31;11.90;;;3.58;;
52041;SDS011;38052;45.944;13.624;2023-02-15T13:14:15;5.10;;;3.15;;
52041;SDS011;38052;45.944;13.624;2023-02-15T13:16:44;6.05;;;3.55;;
52041;SDS011;38052;45.944;13.624;2023-02-15T13:21:41;5.72;;;3.25;;
52041;SDS011;38052;45.944;13.624;2023-02-15T13:24:28;5.35;;;2.65;;
52041;SDS011;38052;45.944;13.624;2023-02-15T13:26:56;6.47;;;3.30;;
52041;SDS011;38052;45.944;13.624;2023-02-15T13:31:53;7.38;;;3.95;;
52041;SDS011;38052;45.944;13.624;2023-02-15T13:34:22;6.78;;;3.95;;
52041;SDS011;38052;45.944;13.624;2023-02-15T13:39:29;7.00;;;5.22;;
52041;SDS011;38052;45.944;13.624;2023-02-15T13:42:00;6.85;;;4.00;;
52041;SDS011;38052;45.944;13.624;2023-02-15T13:52:25;9.80;;;5.45;;
52041;SDS011;38052;45.944;13.624;2023-02-15T13:57:36;8.20;;;5.63;;
52041;SDS011;38052;45.944;13.624;2023-02-15T14:07:46;6.97;;;5.57;;
52041;SDS011;38052;45.944;13.624;2023-02-15T14:23:51;15.68;;;11.40;;
52041;SDS011;38052;45.944;13.624;2023-02-15T14:31:30;16.48;;;10.80;;
52041;SDS011;38052;45.944;13.624;2023-02-15T14:36:25;18.48;;;10.77;;
52041;SDS011;38052;45.944;13.624;2023-02-15T14:39:18;18.02;;;10.57;;
52041;SDS011;38052;45.944;13.624;2023-02-15T14:42:15;16.42;;;11.80;;
52041;SDS011;38052;45.944;13.624;2023-02-15T14:47:33;16.73;;;11.82;;
52041;SDS011;38052;45.944;13.624;2023-02-15T14:55:42;21.23;;;14.07;;
52041;SDS011;38052;45.944;13.624;2023-02-15T14:58:12;13.88;;;11.95;;
52041;SDS011;38052;45.944;13.624;2023-02-15T15:00:39;13.75;;;10.40;;
52041;SDS011;38052;45.944;13.624;2023-02-15T15:03:21;17.60;;;12.25;;
52041;SDS011;38052;45.944;13.624;2023-02-15T15:05:50;16.08;;;12.00;;
52041;SDS011;38052;45.944;13.624;2023-02-15T15:13:53;19.13;;;11.95;;
52041;SDS011;38052;45.944;13.624;2023-02-15T15:17:01;18.98;;;12.38;;
52041;SDS011;38052;45.944;13.624;2023-02-15T15:19:09;15.52;;;12.77;;
52041;SDS011;38052;45.944;13.624;2023-02-15T15:21:54;15.82;;;12.05;;
52041;SDS011;38052;45.944;13.624;2023-02-15T15:29:54;17.77;;;13.25;;
52041;SDS011;38052;45.944;13.624;2023-02-15T15:32:22;21.75;;;16.25;;
52041;SDS011;38052;45.944;13.624;2023-02-15T15:34:57;30.00;;;19.45;;
52041;SDS011;38052;45.944;13.624;2023-02-15T15:40:30;27.48;;;19.38;;
52041;SDS011;38052;45.944;13.624;2023-02-15T15:50:40;28.23;;;19.75;;
52041;SDS011;38052;45.944;13.624;2023-02-15T15:53:06;33.03;;;20.00;;
52041;SDS011;38052;45.944;13.624;2023-02-15T15:55:42;29.40;;;20.95;;
52041;SDS011;38052;45.944;13.624;2023-02-15T15:58:10;36.40;;;21.05;;
52041;SDS011;38052;45.944;13.624;2023-02-15T16:00:47;31.45;;;21.60;;
52041;SDS011;38052;45.944;13.624;2023-02-15T16:03:15;39.22;;;22.02;;
52041;SDS011;38052;45.944;13.624;2023-02-15T16:05:42;37.05;;;22.58;;
52041;SDS011;38052;45.944;13.624;2023-02-15T16:08:08;40.60;;;24.17;;
52041;SDS011;38052;45.944;13.624;2023-02-15T16:10:34;35.60;;;22.60;;
52041;SDS011;38052;45.944;13.624;2023-02-15T16:13:02;36.65;;;22.15;;
52041;SDS011;38052;45.944;13.624;2023-02-15T16:15:33;39.08;;;25.65;;
52041;SDS011;38052;45.944;13.624;2023-02-15T16:18:00;41.95;;;27.30;;
52041;SDS011;38052;45.944;13.624;2023-02-15T16:20:27;48.80;;;29.60;;
52041;SDS011;38052;45.944;13.624;2023-02-15T16:28:10;43.42;;;26.75;;
52041;SDS011;38052;45.944;13.624;2023-02-15T16:30:37;43.33;;;27.95;;
52041;SDS011;38052;45.944;13.624;2023-02-15T16:33:14;43.85;;;26.98;;
52041;SDS011;38052;45.944;13.624;2023-02-15T16:35:53;40.85;;;27.50;;
52041;SDS011;38052;45.944;13.624;2023-02-15T16:41:05;39.95;;;25.75;;
52041;SDS011;38052;45.944;13.624;2023-02-15T16:43:32;44.15;;;28.83;;
52041;SDS011;38052;45.944;13.624;2023-02-15T16:46:05;43.05;;;28.67;;
52041;SDS011;38052;45.944;13.624;2023-02-15T16:48:33;39.22;;;26.33;;
52041;SDS011;38052;45.944;13.624;2023-02-15T16:51:00;43.72;;;29.30;;
52041;SDS011;38052;45.944;13.624;2023-02-15T16:53:26;37.42;;;26.42;;
52041;SDS011;38052;45.944;13.624;2023-02-15T16:55:54;44.97;;;27.25;;
52041;SDS011;38052;45.944;13.624;2023-02-15T16:58:31;47.78;;;29.05;;
52041;SDS011;38052;45.944;13.624;2023-02-15T17:01:02;46.42;;;29.80;;
52041;SDS011;38052;45.944;13.624;2023-02-15T17:03:28;44.28;;;25.33;;
52041;SDS011;38052;45.944;13.624;2023-02-15T17:05:56;49.20;;;27.02;;
52041;SDS011;38052;45.944;13.624;2023-02-15T17:08:26;39.28;;;26.35;;
52041;SDS011;38052;45.944;13.624;2023-02-15T17:13:26;38.85;;;25.65;;
52041;SDS011;38052;45.944;13.624;2023-02-15T17:18:29;37.67;;;26.30;;
52041;SDS011;38052;45.944;13.624;2023-02-15T17:20:56;45.45;;;26.88;;
52041;SDS011;38052;45.944;13.624;2023-02-15T17:23:33;34.13;;;23.65;;
52041;SDS011;38052;45.944;13.624;2023-02-15T17:26:10;46.42;;;27.35;;
52041;SDS011;38052;45.944;13.624;2023-02-15T17:28:37;38.38;;;27.35;;
52041;SDS011;38052;45.944;13.624;2023-02-15T17:31:07;39.58;;;25.67;;
52041;SDS011;38052;45.944;13.624;2023-02-15T17:38:39;42.10;;;30.33;;
52041;SDS011;38052;45.944;13.624;2023-02-15T17:41:07;40.88;;;30.50;;
52041;SDS011;38052;45.944;13.624;2023-02-15T17:43:33;52.78;;;36.22;;
52041;SDS011;38052;45.944;13.624;2023-02-15T17:46:00;59.90;;;37.00;;
52041;SDS011;38052;45.944;13.624;2023-02-15T17:48:35;53.60;;;35.95;;
52041;SDS011;38052;45.944;13.624;2023-02-15T17:51:03;55.33;;;37.10;;
52041;SDS011;38052;45.944;13.624;2023-02-15T17:53:30;59.40;;;37.95;;
52041;SDS011;38052;45.944;13.624;2023-02-15T17:55:57;58.10;;;39.85;;
52041;SDS011;38052;45.944;13.624;2023-02-15T17:58:24;60.17;;;38.33;;
52041;SDS011;38052;45.944;13.624;2023-02-15T18:00:51;51.67;;;35.22;;
52041;SDS011;38052;45.944;13.624;2023-02-15T18:06:27;54.70;;;36.57;;
52041;SDS011;38052;45.944;13.624;2023-02-15T18:09:18;57.10;;;37.15;;
52041;SDS011;38052;45.944;13.624;2023-02-15T18:12:17;57.50;;;37.97;;
52041;SDS011;38052;45.944;13.624;2023-02-15T18:14:44;58.38;;;37.58;;